createdAt,value
2018-08-09T09:07:24.166Z,1008.71
2018-08-09T09:08:24.143Z,1008.67
2018-08-09T09:10:17.540Z,1008.59
2018-08-09T09:11:17.540Z,1008.56
2018-08-09T09:13:27.338Z,1008.45
2018-08-09T09:14:26.010Z,1008.44
2018-08-09T09:15:25.839Z,1008.46
2018-08-09T09:16:33.963Z,1008.36
2018-08-09T09:18:20.924Z,1008.33
2018-08-09T09:20:42.967Z,1008.30
2018-08-09T09:21:42.968Z,1008.23
2018-08-09T09:22:42.972Z,1008.28
2018-08-09T09:23:42.976Z,1008.26
2018-08-09T09:24:43.000Z,1008.25
2018-08-09T09:25:42.991Z,1008.25
2018-08-09T09:26:42.996Z,1008.23
2018-08-09T09:27:43.004Z,1008.22
2018-08-09T09:28:43.011Z,1008.20
2018-08-09T09:29:43.018Z,1008.24
2018-08-09T09:30:43.026Z,1008.26
2018-08-09T09:31:43.034Z,1008.24
2018-08-09T09:32:43.041Z,1008.24
2018-08-09T09:33:43.048Z,1008.26
2018-08-09T09:34:43.055Z,1008.18
2018-08-09T09:35:43.067Z,1008.14
2018-08-09T09:36:43.072Z,1008.14
2018-08-09T09:37:43.086Z,1008.10
2018-08-09T09:38:43.089Z,1008.10
2018-08-09T09:39:43.098Z,1008.11
2018-08-09T09:40:43.117Z,1008.09
2018-08-09T09:41:43.119Z,1008.04
2018-08-09T09:42:43.123Z,1008.02
2018-08-09T09:43:43.133Z,1008.03
2018-08-09T09:44:43.145Z,1007.94
2018-08-09T09:45:43.152Z,1007.95
2018-08-09T09:46:43.161Z,1007.92
2018-08-09T09:47:43.168Z,1007.86
2018-08-09T09:48:43.178Z,1007.88
2018-08-09T09:49:43.235Z,1007.85
2018-08-09T09:50:43.203Z,1007.78
2018-08-09T09:51:43.207Z,1007.79
2018-08-09T09:52:43.217Z,1007.73
2018-08-09T09:53:43.225Z,1007.71
2018-08-09T09:54:43.236Z,1007.74
2018-08-09T09:55:43.281Z,1007.71
2018-08-09T09:56:43.263Z,1007.74
2018-08-09T09:57:43.264Z,1007.68
2018-08-09T09:58:43.274Z,1007.71
2018-08-09T09:59:43.283Z,1007.73
2018-08-09T10:00:43.297Z,1007.64
2018-08-09T10:01:43.367Z,1007.71
2018-08-09T10:02:43.313Z,1007.63
2018-08-09T10:03:43.327Z,1007.58
2018-08-09T10:04:43.335Z,1007.50
2018-08-09T10:05:43.345Z,1007.49
2018-08-09T10:06:43.353Z,1007.49
2018-08-09T10:07:43.368Z,1007.44
2018-08-09T10:08:43.377Z,1007.39
2018-08-09T10:09:43.385Z,1007.33
2018-08-09T10:10:43.397Z,1007.27
2018-08-09T10:11:43.408Z,1007.21
2018-08-09T10:12:43.438Z,1007.19
2018-08-09T10:13:43.426Z,1007.13
2018-08-09T10:14:43.459Z,1007.01
2018-08-09T10:15:43.448Z,1007.04
2018-08-09T10:16:43.459Z,1007.01
2018-08-09T10:17:43.474Z,1007.02
2018-08-09T10:18:43.479Z,1007.09
2018-08-09T10:19:43.518Z,1007.10
2018-08-09T10:20:43.499Z,1007.06
2018-08-09T10:21:43.510Z,1007.10
2018-08-09T10:22:43.520Z,1007.07
2018-08-09T10:23:43.532Z,1007.07
2018-08-09T10:24:43.542Z,1007.11
2018-08-09T10:25:43.553Z,1007.10
2018-08-09T10:26:43.561Z,1007.08
2018-08-09T10:27:43.573Z,1007.03
2018-08-09T10:28:43.583Z,1006.98
2018-08-09T10:29:43.593Z,1006.95
2018-08-09T10:30:43.602Z,1006.89
2018-08-09T10:31:43.614Z,1006.90
2018-08-09T10:32:43.623Z,1006.87
2018-08-09T10:33:43.632Z,1006.89
2018-08-09T10:34:43.646Z,1006.90
2018-08-09T10:35:43.654Z,1006.90
2018-08-09T10:36:43.665Z,1006.93
2018-08-09T10:37:43.671Z,1006.94
2018-08-09T10:38:43.681Z,1006.94
2018-08-09T10:39:43.693Z,1007.00
2018-08-09T10:40:43.700Z,1007.13
2018-08-09T10:41:43.712Z,1007.23
2018-08-09T10:42:43.756Z,1007.30
2018-08-09T10:43:43.727Z,1007.25
2018-08-09T10:44:43.741Z,1007.11
2018-08-09T10:45:43.748Z,1006.85
2018-08-09T10:46:43.758Z,1006.71
2018-08-09T10:47:43.767Z,1006.63
2018-08-09T10:48:43.776Z,1006.60
2018-08-09T10:49:43.785Z,1006.57
2018-08-09T10:50:43.795Z,1006.56
2018-08-09T10:51:43.804Z,1006.54
2018-08-09T10:52:43.816Z,1006.48
2018-08-09T10:53:43.823Z,1006.45
2018-08-09T10:54:43.833Z,1006.41
2018-08-09T10:55:43.896Z,1006.42
2018-08-09T10:56:43.851Z,1006.39
2018-08-09T10:57:43.859Z,1006.45
2018-08-09T10:58:43.868Z,1006.45
2018-08-09T10:59:43.884Z,1006.43
2018-08-09T11:00:43.887Z,1006.45
2018-08-09T11:01:43.933Z,1006.49
2018-08-09T11:02:43.904Z,1006.50
2018-08-09T11:03:43.914Z,1006.54
2018-08-09T11:04:43.933Z,1006.55
2018-08-09T11:05:43.932Z,1006.57
2018-08-09T11:06:43.942Z,1006.59
2018-08-09T11:07:43.950Z,1006.66
2018-08-09T11:08:43.972Z,1006.68
2018-08-09T11:09:43.969Z,1006.74
2018-08-09T11:10:43.978Z,1006.70
2018-08-09T11:11:43.987Z,1006.69
2018-08-09T11:12:43.996Z,1006.60
2018-08-09T11:13:44.006Z,1006.53
2018-08-09T11:14:44.012Z,1006.55
2018-08-09T11:15:44.021Z,1006.51
2018-08-09T11:16:44.032Z,1006.47
2018-08-09T11:17:44.038Z,1006.44
2018-08-09T11:18:44.046Z,1006.37
2018-08-09T11:19:44.055Z,1006.29
2018-08-09T11:20:44.064Z,1006.28
2018-08-09T11:21:44.071Z,1006.21
2018-08-09T11:22:44.086Z,1006.18
2018-08-09T11:23:44.157Z,1006.16
2018-08-09T11:24:44.098Z,1006.17
2018-08-09T11:25:44.105Z,1006.14
2018-08-09T11:26:44.117Z,1006.14
2018-08-09T11:27:44.123Z,1006.12
2018-08-09T11:28:44.133Z,1006.06
2018-08-09T11:29:44.142Z,1006.00
2018-08-09T11:30:44.150Z,1006.00
2018-08-09T11:31:44.158Z,1005.91
2018-08-09T11:32:44.168Z,1005.89
2018-08-09T11:33:44.177Z,1005.78
2018-08-09T11:34:44.186Z,1005.78
2018-08-09T11:35:44.194Z,1005.78
2018-08-09T11:36:44.204Z,1005.77
2018-08-09T11:37:44.226Z,1005.71
2018-08-09T11:38:44.220Z,1005.70
2018-08-09T11:39:44.270Z,1005.61
2018-08-09T11:40:44.237Z,1005.56
2018-08-09T11:41:44.245Z,1005.58
2018-08-09T11:42:44.255Z,1005.52
2018-08-09T11:43:44.265Z,1005.42
2018-08-09T11:44:44.282Z,1005.40
2018-08-09T11:45:44.284Z,1005.32
2018-08-09T11:46:44.293Z,1005.30
2018-08-09T11:47:44.303Z,1005.27
2018-08-09T11:48:44.313Z,1005.28
2018-08-09T11:49:44.322Z,1005.21
2018-08-09T11:50:44.333Z,1005.28
2018-08-09T11:51:44.345Z,1005.25
2018-08-09T11:52:44.352Z,1005.24
2018-08-09T11:53:44.362Z,1005.13
2018-08-09T11:54:44.391Z,1005.07
2018-08-09T11:55:44.383Z,1005.02
2018-08-09T11:56:44.421Z,1004.95
2018-08-09T11:57:44.403Z,1004.99
2018-08-09T11:58:44.416Z,1004.88
2018-08-09T11:59:44.423Z,1004.87
2018-08-09T12:00:44.432Z,1004.90
2018-08-09T12:01:44.496Z,1004.88
2018-08-09T12:02:44.451Z,1004.91
2018-08-09T12:03:44.463Z,1004.93
2018-08-09T12:04:44.478Z,1004.90
2018-08-09T12:05:44.483Z,1004.83
2018-08-09T12:06:44.495Z,1004.84
2018-08-09T12:07:44.504Z,1004.84
2018-08-09T12:08:44.516Z,1004.79
2018-08-09T12:09:44.526Z,1004.86
2018-08-09T12:10:44.544Z,1004.80
2018-08-09T12:11:44.547Z,1004.80
2018-08-09T12:12:44.559Z,1004.67
2018-08-09T12:13:44.567Z,1004.69
2018-08-09T12:14:44.577Z,1004.62
2018-08-09T12:15:44.588Z,1004.58
2018-08-09T12:16:44.597Z,1004.51
2018-08-09T12:17:44.607Z,1004.51
2018-08-09T12:18:44.617Z,1004.54
2018-08-09T12:19:44.629Z,1004.47
2018-08-09T12:20:44.668Z,1004.41
2018-08-09T12:21:44.653Z,1004.34
2018-08-09T12:22:44.660Z,1004.34
2018-08-09T12:23:44.671Z,1004.34
2018-08-09T12:24:44.682Z,1004.29
2018-08-09T12:25:44.693Z,1004.28
2018-08-09T12:26:44.705Z,1004.28
2018-08-09T12:27:44.713Z,1004.27
2018-08-09T12:28:44.726Z,1004.14
2018-08-09T12:29:44.732Z,1004.09
2018-08-09T12:30:44.744Z,1004.11
2018-08-09T12:31:44.754Z,1004.11
2018-08-09T12:32:44.763Z,1004.06
2018-08-09T12:33:44.773Z,1003.96
2018-08-09T12:34:44.785Z,1003.99
2018-08-09T12:35:44.795Z,1003.99
2018-08-09T12:36:44.864Z,1003.99
2018-08-09T12:37:44.813Z,1003.99
2018-08-09T12:38:44.824Z,1003.99
2018-08-09T12:39:44.845Z,1003.92
2018-08-09T12:40:44.846Z,1003.84
2018-08-09T12:41:44.856Z,1003.80
2018-08-09T12:42:44.867Z,1003.77
2018-08-09T12:43:44.876Z,1003.74
2018-08-09T12:44:44.889Z,1003.72
2018-08-09T12:45:44.898Z,1003.76
2018-08-09T12:46:44.912Z,1003.71
2018-08-09T12:47:44.919Z,1003.68
2018-08-09T12:48:44.931Z,1003.64
2018-08-09T12:49:44.939Z,1003.68
2018-08-09T12:50:44.990Z,1003.60
2018-08-09T12:51:44.969Z,1003.68
2018-08-09T12:52:44.971Z,1003.72
2018-08-09T12:53:44.981Z,1003.71
2018-08-09T12:54:44.991Z,1003.67
2018-08-09T12:55:45.002Z,1003.65
2018-08-09T12:56:45.012Z,1003.61
2018-08-09T12:57:45.023Z,1003.56
2018-08-09T12:58:45.036Z,1003.49
2018-08-09T12:59:45.045Z,1003.49
2018-08-09T13:00:45.054Z,1003.46
2018-08-09T13:01:45.063Z,1003.52
2018-08-09T13:02:45.074Z,1003.44
2018-08-09T13:03:45.084Z,1003.43
2018-08-09T13:04:45.099Z,1003.36
2018-08-09T13:05:45.123Z,1003.29
2018-08-09T13:06:45.114Z,1003.37
2018-08-09T13:07:45.126Z,1003.38
2018-08-09T13:08:45.146Z,1003.43
2018-08-09T13:09:45.149Z,1003.33
2018-08-09T13:10:45.161Z,1003.30
2018-08-09T13:11:45.172Z,1003.25
2018-08-09T13:12:45.183Z,1003.25
2018-08-09T13:13:45.191Z,1003.28
2018-08-09T13:14:45.204Z,1003.24
2018-08-09T13:15:45.213Z,1003.19
2018-08-09T13:16:45.223Z,1003.17
2018-08-09T13:17:45.233Z,1003.11
2018-08-09T13:18:45.242Z,1002.97
2018-08-09T13:19:45.251Z,1002.97
2018-08-09T13:20:45.263Z,1002.93
2018-08-09T13:21:45.273Z,1002.89
2018-08-09T13:22:45.285Z,1002.90
2018-08-09T13:23:45.295Z,1002.90
2018-08-09T13:24:45.304Z,1002.89
2018-08-09T13:25:45.322Z,1002.86
2018-08-09T13:26:45.327Z,1002.84
2018-08-09T13:27:45.338Z,1002.79
2018-08-09T13:28:45.351Z,1002.76
2018-08-09T13:29:45.368Z,1002.72
2018-08-09T13:30:45.370Z,1002.74
2018-08-09T13:31:45.380Z,1002.66
2018-08-09T13:32:45.395Z,1002.64
2018-08-09T13:33:45.441Z,1002.67
2018-08-09T13:34:45.411Z,1002.62
2018-08-09T13:35:45.422Z,1002.60
2018-08-09T13:36:45.432Z,1002.55
2018-08-09T13:37:45.443Z,1002.52
2018-08-09T13:38:45.460Z,1002.47
2018-08-09T13:39:45.465Z,1002.49
2018-08-09T13:40:45.473Z,1002.47
2018-08-09T13:41:45.484Z,1002.45
2018-08-09T13:42:45.496Z,1002.41
2018-08-09T13:43:45.511Z,1002.44
2018-08-09T13:44:45.517Z,1002.48
2018-08-09T13:45:45.525Z,1002.62
2018-08-09T13:46:45.603Z,1002.65
2018-08-09T13:47:45.544Z,1002.59
2018-08-09T13:48:45.556Z,1002.59
2018-08-09T13:49:45.578Z,1002.61
2018-08-09T13:50:45.576Z,1002.58
2018-08-09T13:51:45.590Z,1002.71
2018-08-09T13:52:45.645Z,1002.61
2018-08-09T13:53:45.608Z,1002.62
2018-08-09T13:54:45.620Z,1002.54
2018-08-09T13:55:45.629Z,1002.54
2018-08-09T13:56:45.643Z,1002.46
2018-08-09T13:57:45.649Z,1002.37
2018-08-09T13:58:45.659Z,1002.26
2018-08-09T13:59:45.671Z,1002.22
2018-08-09T14:00:45.678Z,1002.26
2018-08-09T14:01:45.691Z,1002.26
2018-08-09T14:02:45.697Z,1002.25
2018-08-09T14:03:45.752Z,1002.28
2018-08-09T14:04:45.714Z,1002.27
2018-08-09T14:05:45.724Z,1002.32
2018-08-09T14:06:45.742Z,1002.29
2018-08-09T14:07:45.745Z,1002.31
2018-08-09T14:08:45.756Z,1002.28
2018-08-09T14:09:45.762Z,1002.29
2018-08-09T14:10:45.816Z,1002.33
2018-08-09T14:11:45.781Z,1002.35
2018-08-09T14:12:45.795Z,1002.38
2018-08-09T14:13:45.801Z,1002.47
2018-08-09T14:14:45.810Z,1002.53
2018-08-09T14:15:45.818Z,1002.56
2018-08-09T14:16:45.829Z,1002.70
2018-08-09T14:17:45.862Z,1002.77
2018-08-09T14:18:45.848Z,1002.60
2018-08-09T14:19:45.859Z,1002.57
2018-08-09T14:20:45.866Z,1002.48
2018-08-09T14:21:45.874Z,1002.37
2018-08-09T14:22:45.887Z,1002.21
2018-08-09T14:23:45.892Z,1002.30
2018-08-09T14:24:45.969Z,1002.32
2018-08-09T14:25:45.910Z,1002.31
2018-08-09T14:26:45.919Z,1002.35
2018-08-09T14:27:45.930Z,1002.31
2018-08-09T14:28:45.940Z,1002.28
2018-08-09T14:29:45.947Z,1002.23
2018-08-09T14:30:45.955Z,1002.21
2018-08-09T14:31:45.965Z,1002.16
2018-08-09T14:32:45.975Z,1002.08
2018-08-09T14:33:45.987Z,1002.08
2018-08-09T14:34:45.991Z,1002.09
2018-08-09T14:35:46.003Z,1002.20
2018-08-09T14:36:46.011Z,1002.21
2018-08-09T14:37:46.035Z,1002.11
2018-08-09T14:38:46.077Z,1002.23
2018-08-09T14:39:46.042Z,1002.24
2018-08-09T14:40:46.046Z,1002.24
2018-08-09T14:41:46.056Z,1002.21
2018-08-09T14:42:46.068Z,1002.24
2018-08-09T14:43:46.074Z,1002.19
2018-08-09T14:44:46.082Z,1002.21
2018-08-09T14:45:46.090Z,1002.21
2018-08-09T14:46:46.101Z,1002.27
2018-08-09T14:47:46.158Z,1002.24
2018-08-09T14:48:46.203Z,1002.27
2018-08-09T14:49:46.124Z,1002.28
2018-08-09T14:50:46.135Z,1002.28
2018-08-09T14:51:46.146Z,1002.29
2018-08-09T14:52:46.153Z,1002.32
2018-08-09T14:53:46.176Z,1002.37
2018-08-09T14:54:46.176Z,1002.41
2018-08-09T14:55:46.186Z,1002.41
2018-08-09T14:56:46.190Z,1002.44
2018-08-09T14:57:46.209Z,1002.40
2018-08-09T14:58:46.207Z,1002.39
2018-08-09T14:59:46.259Z,1002.42
2018-08-09T15:00:46.229Z,1002.37
2018-08-09T15:01:46.242Z,1002.39
2018-08-09T15:02:46.246Z,1002.37
2018-08-09T15:03:46.255Z,1002.37
2018-08-09T15:04:46.263Z,1002.32
2018-08-09T15:05:46.278Z,1002.37
2018-08-09T15:06:46.281Z,1002.33
2018-08-09T15:07:46.289Z,1002.27
2018-08-09T15:08:46.297Z,1002.29
2018-08-09T15:09:46.305Z,1002.25
2018-08-09T15:10:46.318Z,1002.23
2018-08-09T15:11:46.325Z,1002.14
2018-08-09T15:12:46.332Z,1002.13
2018-08-09T15:13:46.345Z,1002.16
2018-08-09T15:14:46.350Z,1002.20
2018-08-09T15:15:46.359Z,1002.19
2018-08-09T15:16:46.369Z,1002.26
2018-08-09T15:17:46.378Z,1002.22
2018-08-09T15:18:46.408Z,1002.22
2018-08-09T15:19:46.396Z,1002.21
2018-08-09T15:20:46.410Z,1002.22
2018-08-09T15:21:46.412Z,1002.18
2018-08-09T15:22:46.425Z,1002.08
2018-08-09T15:23:46.433Z,1002.14
2018-08-09T15:24:46.439Z,1002.16
2018-08-09T15:25:46.458Z,1002.10
2018-08-09T15:26:46.457Z,1002.17
2018-08-09T15:27:46.466Z,1002.15
2018-08-09T15:28:46.476Z,1002.14
2018-08-09T15:29:46.501Z,1002.10
2018-08-09T15:30:46.537Z,1002.09
2018-08-09T15:31:46.501Z,1002.09
2018-08-09T15:32:46.509Z,1002.04
2018-08-09T15:33:46.518Z,1001.89
2018-08-09T15:34:46.544Z,1001.93
2018-08-09T15:35:46.541Z,1001.91
2018-08-09T15:36:46.546Z,1001.86
2018-08-09T15:37:46.554Z,1001.79
2018-08-09T15:38:46.566Z,1001.75
2018-08-09T15:39:46.579Z,1001.68
2018-08-09T15:40:46.582Z,1001.67
2018-08-09T15:41:46.590Z,1001.67
2018-08-09T15:42:46.599Z,1001.67
2018-08-09T15:43:46.612Z,1001.65
2018-08-09T15:44:46.616Z,1001.61
2018-08-09T15:45:46.625Z,1001.67
2018-08-09T15:46:46.636Z,1001.64
2018-08-09T15:47:46.717Z,1001.62
2018-08-09T15:48:46.661Z,1001.57
2018-08-09T15:49:46.663Z,1001.68
2018-08-09T15:50:46.673Z,1001.58
2018-08-09T15:51:46.682Z,1001.60
2018-08-09T15:52:46.692Z,1001.57
2018-08-09T15:53:46.700Z,1001.51
2018-08-09T15:54:46.709Z,1001.62
2018-08-09T15:55:46.716Z,1001.53
2018-08-09T15:56:46.736Z,1001.51
2018-08-09T15:57:46.759Z,1001.50
2018-08-09T15:58:46.748Z,1001.51
2018-08-09T15:59:46.758Z,1001.48
2018-08-09T16:00:46.765Z,1001.44
2018-08-09T16:01:46.771Z,1001.46
2018-08-09T16:02:46.783Z,1001.38
2018-08-09T16:03:46.789Z,1001.34
2018-08-09T16:04:46.811Z,1001.43
2018-08-09T16:05:46.809Z,1001.38
2018-08-09T16:06:46.817Z,1001.37
2018-08-09T16:07:46.849Z,1001.41
2018-08-09T16:08:46.838Z,1001.44
2018-08-09T16:09:46.845Z,1001.38
2018-08-09T16:10:46.855Z,1001.41
2018-08-09T16:11:46.867Z,1001.40
2018-08-09T16:12:46.876Z,1001.46
2018-08-09T16:13:46.886Z,1001.47
2018-08-09T16:14:46.925Z,1001.51
2018-08-09T16:15:46.906Z,1001.64
2018-08-09T16:16:46.913Z,1001.64
2018-08-09T16:17:46.921Z,1001.68
2018-08-09T16:18:46.932Z,1001.68
2018-08-09T16:19:46.942Z,1001.77
2018-08-09T16:20:46.950Z,1001.84
2018-08-09T16:21:46.958Z,1001.88
2018-08-09T16:22:46.991Z,1001.87
2018-08-09T16:23:46.980Z,1001.88
2018-08-09T16:24:46.989Z,1001.90
2018-08-09T16:25:47.007Z,1001.94
2018-08-09T16:26:47.005Z,1001.78
2018-08-09T16:27:47.015Z,1001.97
2018-08-09T16:28:47.028Z,1001.95
2018-08-09T16:29:47.033Z,1002.00
2018-08-09T16:30:47.046Z,1001.94
2018-08-09T16:31:47.053Z,1001.90
2018-08-09T16:32:47.063Z,1001.88
2018-08-09T16:33:47.072Z,1001.99
2018-08-09T16:34:47.100Z,1001.99
2018-08-09T16:35:47.091Z,1001.98
2018-08-09T16:36:47.103Z,1002.09
2018-08-09T16:37:47.108Z,1002.05
2018-08-09T16:38:47.118Z,1002.03
2018-08-09T16:39:47.127Z,1002.00
2018-08-09T16:40:47.135Z,1001.96
2018-08-09T16:41:47.151Z,1001.98
2018-08-09T16:42:47.159Z,1002.06
2018-08-09T16:43:47.172Z,1002.02
2018-08-09T16:44:47.172Z,1002.01
2018-08-09T16:45:47.180Z,1002.06
2018-08-09T16:46:47.190Z,1002.08
2018-08-09T16:47:47.202Z,1002.08
2018-08-09T16:48:47.211Z,1002.05
2018-08-09T16:49:47.218Z,1002.05
2018-08-09T16:50:47.228Z,1001.94
2018-08-09T16:51:47.240Z,1002.01
2018-08-09T16:52:47.246Z,1001.92
2018-08-09T16:53:47.256Z,1001.99
2018-08-09T16:54:47.264Z,1002.05
2018-08-09T16:55:47.272Z,1002.05
2018-08-09T16:56:47.286Z,1002.00
2018-08-09T16:57:47.292Z,1001.94
2018-08-09T16:58:47.300Z,1001.94
2018-08-09T16:59:47.306Z,1001.98
2018-08-09T17:00:47.316Z,1002.01
2018-08-09T17:01:47.325Z,1001.92
2018-08-09T17:02:47.384Z,1001.98
2018-08-09T17:03:47.343Z,1001.97
2018-08-09T17:04:47.352Z,1001.98
2018-08-09T17:05:47.361Z,1001.94
2018-08-09T17:06:47.369Z,1001.95
2018-08-09T17:07:47.378Z,1001.99
2018-08-09T17:08:47.418Z,1001.98
2018-08-09T17:09:47.401Z,1002.10
2018-08-09T17:10:47.407Z,1001.99
2018-08-09T17:11:47.413Z,1002.01
2018-08-09T17:12:47.423Z,1002.01
2018-08-09T17:13:47.432Z,1001.94
2018-08-09T17:14:47.449Z,1001.97
2018-08-09T17:15:47.451Z,1001.99
2018-08-09T17:16:47.459Z,1002.07
2018-08-09T17:17:47.480Z,1002.05
2018-08-09T17:18:47.481Z,1002.01
2018-08-09T17:19:47.491Z,1002.02
2018-08-09T17:20:47.501Z,1002.04
2018-08-09T17:21:47.505Z,1002.04
2018-08-09T17:22:47.515Z,1002.05
2018-08-09T17:23:47.523Z,1002.06
2018-08-09T17:24:47.548Z,1002.08
2018-08-09T17:25:47.544Z,1001.97
2018-08-09T17:26:47.554Z,1002.05
2018-08-09T17:27:47.557Z,1002.05
2018-08-09T17:28:47.592Z,1002.02
2018-08-09T17:29:47.573Z,1002.05
2018-08-09T17:30:47.591Z,1002.14
2018-08-09T17:31:47.599Z,1002.07
2018-08-09T17:32:47.603Z,1002.04
2018-08-09T17:33:47.612Z,1002.04
2018-08-09T17:34:47.620Z,1001.98
2018-08-09T17:35:47.630Z,1002.06
2018-08-09T17:36:47.639Z,1002.02
2018-08-09T17:37:47.648Z,1002.08
2018-08-09T17:38:47.656Z,1002.15
2018-08-09T17:39:47.669Z,1002.14
2018-08-09T17:42:09.762Z,1002.20
2018-08-09T17:43:09.760Z,1002.19
2018-08-09T17:45:03.189Z,1002.18
2018-08-09T17:46:03.197Z,1002.17
2018-08-09T17:47:57.628Z,1002.15
2018-08-09T17:48:57.619Z,1002.22
2018-08-09T17:49:57.634Z,1002.22
2018-08-09T17:50:57.638Z,1002.23
2018-08-09T17:51:57.649Z,1002.19
2018-08-09T17:52:57.655Z,1002.17
2018-08-09T17:53:57.666Z,1002.22
2018-08-09T17:54:57.675Z,1002.22
2018-08-09T17:55:57.685Z,1002.29
2018-08-09T17:56:57.693Z,1002.25
2018-08-09T17:57:57.701Z,1002.29
2018-08-09T17:58:57.713Z,1002.27
2018-08-09T17:59:57.719Z,1002.35
2018-08-09T18:00:57.729Z,1002.25
2018-08-09T18:01:57.738Z,1002.30
2018-08-09T18:02:57.750Z,1002.26
2018-08-09T18:03:57.764Z,1002.31
2018-08-09T18:04:57.793Z,1002.32
2018-08-09T18:05:57.772Z,1002.30
2018-08-09T18:06:57.784Z,1002.39
2018-08-09T18:07:57.794Z,1002.21
2018-08-09T18:08:57.802Z,1002.15
2018-08-09T18:09:57.811Z,1002.27
2018-08-09T18:10:57.822Z,1002.32
2018-08-09T18:11:57.831Z,1002.24
2018-08-09T18:12:57.839Z,1002.26
2018-08-09T18:13:57.849Z,1002.28
2018-08-09T18:14:57.856Z,1002.22
2018-08-09T18:15:57.868Z,1002.26
2018-08-09T18:16:57.875Z,1002.24
2018-08-09T18:17:57.882Z,1002.18
2018-08-09T18:18:57.893Z,1002.23
2018-08-09T18:19:57.901Z,1002.24
2018-08-09T18:20:57.910Z,1002.25
2018-08-09T18:21:57.919Z,1002.25
2018-08-09T18:22:57.929Z,1002.22
2018-08-09T18:23:57.969Z,1002.27
2018-08-09T18:24:57.945Z,1002.24
2018-08-09T18:25:57.957Z,1002.22
2018-08-09T18:26:57.966Z,1002.26
2018-08-09T18:27:57.975Z,1002.29
2018-08-09T18:28:57.983Z,1002.33
2018-08-09T18:29:57.994Z,1002.23
2018-08-09T18:30:58.053Z,1002.25
2018-08-09T18:31:58.010Z,1002.20
2018-08-09T18:32:58.077Z,1002.22
2018-08-09T18:33:58.029Z,1002.22
2018-08-09T18:34:58.038Z,1002.34
2018-08-09T18:35:58.046Z,1002.41
2018-08-09T18:36:58.055Z,1002.40
2018-08-09T18:37:58.066Z,1002.38
2018-08-09T18:38:58.078Z,1002.36
2018-08-09T18:39:58.085Z,1002.40
2018-08-09T18:40:58.090Z,1002.45
2018-08-09T18:41:58.100Z,1002.51
2018-08-09T18:42:58.120Z,1002.51
2018-08-09T18:43:58.118Z,1002.61
2018-08-09T18:44:58.124Z,1002.62
2018-08-09T18:45:58.133Z,1002.61
2018-08-09T18:46:58.143Z,1002.64
2018-08-09T18:47:58.153Z,1002.69
2018-08-09T18:48:58.166Z,1002.84
2018-08-09T18:49:58.170Z,1002.86
2018-08-09T18:50:58.179Z,1002.94
2018-08-09T18:51:58.189Z,1003.12
2018-08-09T18:52:58.195Z,1003.07
2018-08-09T18:53:58.204Z,1003.12
2018-08-09T18:54:58.215Z,1003.20
2018-08-09T18:55:58.221Z,1003.14
2018-08-09T18:56:58.230Z,1003.09
2018-08-09T18:57:58.237Z,1003.11
2018-08-09T18:58:58.247Z,1003.18
2018-08-09T18:59:58.256Z,1003.23
2018-08-09T19:00:58.267Z,1003.24
2018-08-09T19:01:58.272Z,1003.29
2018-08-09T19:02:58.281Z,1003.28
2018-08-09T19:03:58.288Z,1003.30
2018-08-09T19:06:21.382Z,1003.40
2018-08-09T19:07:30.056Z,1003.41
2018-08-09T19:09:25.853Z,1003.37
2018-08-09T19:10:15.888Z,1003.36
2018-08-09T19:11:15.826Z,1003.37
2018-08-09T19:12:15.833Z,1003.37
2018-08-09T19:13:15.848Z,1003.39
2018-08-09T19:14:15.849Z,1003.35
2018-08-09T19:15:15.859Z,1003.38
2018-08-09T19:16:15.866Z,1003.45
2018-08-09T19:17:15.872Z,1003.54
2018-08-09T19:18:15.879Z,1003.45
2018-08-09T19:19:15.892Z,1003.52
2018-08-09T19:20:15.897Z,1003.62
2018-08-09T19:21:15.905Z,1003.78
2018-08-09T19:22:15.913Z,1003.65
2018-08-09T19:23:16.068Z,1003.61
2018-08-09T19:24:15.926Z,1003.81
2018-08-09T19:25:15.936Z,1003.81
2018-08-09T19:26:15.942Z,1003.78
2018-08-09T19:27:15.991Z,1003.76
2018-08-09T19:28:15.955Z,1003.86
2018-08-09T19:29:15.965Z,1003.90
2018-08-09T19:30:15.972Z,1003.95
2018-08-09T19:31:15.980Z,1004.02
2018-08-09T19:32:15.987Z,1003.97
2018-08-09T19:33:17.892Z,1003.95
2018-08-09T19:34:16.000Z,1003.96
2018-08-09T19:35:16.009Z,1003.95
2018-08-09T19:36:16.063Z,1003.96
2018-08-09T19:37:16.027Z,1004.05
2018-08-09T19:38:16.033Z,1004.12
2018-08-09T19:40:39.123Z,1004.11
2018-08-09T19:41:47.955Z,1004.14
2018-08-09T19:43:33.519Z,1004.12
2018-08-09T19:44:33.522Z,1004.18
2018-08-09T19:46:56.632Z,1004.15
2018-08-09T19:47:56.614Z,1004.23
2018-08-09T19:48:56.594Z,1004.32
2018-08-09T19:49:56.601Z,1004.44
2018-08-09T19:50:56.621Z,1004.33
2018-08-09T19:51:56.616Z,1004.30
2018-08-09T19:52:56.623Z,1004.33
2018-08-09T19:53:56.633Z,1004.38
2018-08-09T19:56:19.725Z,1004.48
2018-08-09T19:57:19.717Z,1004.54
2018-08-09T19:58:20.166Z,1004.51
2018-08-09T19:59:28.364Z,1004.49
2018-08-09T20:01:14.498Z,1004.46
2018-08-09T20:03:37.226Z,1004.56
2018-08-09T20:04:37.217Z,1004.65
2018-08-09T20:05:37.225Z,1004.53
2018-08-09T20:06:37.234Z,1004.55
2018-08-09T20:07:37.237Z,1004.60
2018-08-09T20:08:37.243Z,1004.63
2018-08-09T20:09:37.250Z,1004.62
2018-08-09T20:10:37.271Z,1004.60
2018-08-09T20:11:37.273Z,1004.60
2018-08-09T20:12:37.269Z,1004.60
2018-08-09T20:13:37.279Z,1004.66
2018-08-09T20:14:37.282Z,1004.64
2018-08-09T20:15:37.293Z,1004.71
2018-08-09T20:16:37.297Z,1004.65
2018-08-09T20:19:14.297Z,1004.63
2018-08-09T20:20:14.187Z,1004.64
2018-08-09T20:22:07.510Z,1004.75
